sensor_id;sensor_type;location;lat;lon;timestamp;temperature;humidity
70867;HTU21D;58487;53.474;49.470;2022-12-18T00:01:20;-1.11;87.99
70867;HTU21D;58487;53.474;49.470;2022-12-18T00:03:47;-1.15;87.35
70867;HTU21D;58487;53.474;49.470;2022-12-18T00:06:14;-1.11;88.13
70867;HTU21D;58487;53.474;49.470;2022-12-18T00:08:41;-1.13;89.63
70867;HTU21D;58487;53.474;49.470;2022-12-18T00:11:13;-1.13;88.49
70867;HTU21D;58487;53.474;49.470;2022-12-18T00:13:39;-1.11;89.43
70867;HTU21D;58487;53.474;49.470;2022-12-18T00:16:09;-1.12;86.88
70867;HTU21D;58487;53.474;49.470;2022-12-18T00:18:35;-1.14;86.29
70867;HTU21D;58487;53.474;49.470;2022-12-18T00:21:06;-1.11;87.77
70867;HTU21D;58487;53.474;49.470;2022-12-18T00:23:33;-1.15;86.84
70867;HTU21D;58487;53.474;49.470;2022-12-18T00:26:01;-1.21;93.56
70867;HTU21D;58487;53.474;49.470;2022-12-18T00:28:27;-1.21;91.25
70867;HTU21D;58487;53.474;49.470;2022-12-18T00:31:04;-1.16;87.24
70867;HTU21D;58487;53.474;49.470;2022-12-18T00:33:31;-1.27;98.77
70867;HTU21D;58487;53.474;49.470;2022-12-18T00:36:05;-1.23;99.32
70867;HTU21D;58487;53.474;49.470;2022-12-18T00:38:31;-1.14;94.19
70867;HTU21D;58487;53.474;49.470;2022-12-18T00:40:57;-1.03;88.57
70867;HTU21D;58487;53.474;49.470;2022-12-18T00:43:24;-1.05;88.64
70867;HTU21D;58487;53.474;49.470;2022-12-18T00:45:50;-1.00;92.79
70867;HTU21D;58487;53.474;49.470;2022-12-18T00:48:16;-1.05;92.17
70867;HTU21D;58487;53.474;49.470;2022-12-18T00:50:42;-1.06;98.21
70867;HTU21D;58487;53.474;49.470;2022-12-18T00:53:09;-1.11;95.90
70867;HTU21D;58487;53.474;49.470;2022-12-18T00:55:37;-1.12;99.85
70867;HTU21D;58487;53.474;49.470;2022-12-18T00:58:04;-1.08;99.22
70867;HTU21D;58487;53.474;49.470;2022-12-18T01:00:30;-0.96;95.62
70867;HTU21D;58487;53.474;49.470;2022-12-18T01:02:56;-1.02;96.48
70867;HTU21D;58487;53.474;49.470;2022-12-18T01:05:23;-0.96;100.22
70867;HTU21D;58487;53.474;49.470;2022-12-18T01:07:49;-0.98;99.31
70867;HTU21D;58487;53.474;49.470;2022-12-18T01:10:15;-0.94;101.83
70867;HTU21D;58487;53.474;49.470;2022-12-18T01:12:41;-0.94;101.00
70867;HTU21D;58487;53.474;49.470;2022-12-18T01:15:08;-0.87;98.29
70867;HTU21D;58487;53.474;49.470;2022-12-18T01:17:35;-0.90;100.57
70867;HTU21D;58487;53.474;49.470;2022-12-18T01:20:01;-0.90;98.41
70867;HTU21D;58487;53.474;49.470;2022-12-18T01:22:27;-0.94;100.11
70867;HTU21D;58487;53.474;49.470;2022-12-18T01:24:53;-0.90;99.86
70867;HTU21D;58487;53.474;49.470;2022-12-18T01:27:19;-0.96;108.13
70867;HTU21D;58487;53.474;49.470;2022-12-18T01:29:45;-0.94;99.48
70867;HTU21D;58487;53.474;49.470;2022-12-18T01:32:11;-0.91;97.44
70867;HTU21D;58487;53.474;49.470;2022-12-18T01:34:37;-0.88;98.79
70867;HTU21D;58487;53.474;49.470;2022-12-18T01:37:04;-0.91;98.60
70867;HTU21D;58487;53.474;49.470;2022-12-18T01:39:31;-0.96;99.65
70867;HTU21D;58487;53.474;49.470;2022-12-18T01:42:02;-0.95;98.42
70867;HTU21D;58487;53.474;49.470;2022-12-18T01:47:58;-0.96;97.94
70867;HTU21D;58487;53.474;49.470;2022-12-18T01:50:35;-0.98;100.54
70867;HTU21D;58487;53.474;49.470;2022-12-18T01:53:06;-0.98;101.23
70867;HTU21D;58487;53.474;49.470;2022-12-18T01:55:39;-0.94;104.43
70867;HTU21D;58487;53.474;49.470;2022-12-18T01:58:06;-0.96;101.60
70867;HTU21D;58487;53.474;49.470;2022-12-18T02:00:33;-0.97;98.68
70867;HTU21D;58487;53.474;49.470;2022-12-18T02:02:59;-0.97;101.29
70867;HTU21D;58487;53.474;49.470;2022-12-18T02:05:54;-0.95;99.37
70867;HTU21D;58487;53.474;49.470;2022-12-18T02:08:34;-0.98;98.34
70867;HTU21D;58487;53.474;49.470;2022-12-18T02:13:50;-1.02;97.01
70867;HTU21D;58487;53.474;49.470;2022-12-18T02:16:25;-1.05;98.71
70867;HTU21D;58487;53.474;49.470;2022-12-18T02:19:00;-1.10;99.15
70867;HTU21D;58487;53.474;49.470;2022-12-18T02:21:48;-1.11;99.10
70867;HTU21D;58487;53.474;49.470;2022-12-18T02:24:53;-1.12;100.17
70867;HTU21D;58487;53.474;49.470;2022-12-18T02:27:20;-1.13;101.18
70867;HTU21D;58487;53.474;49.470;2022-12-18T02:29:54;-1.11;103.19
70867;HTU21D;58487;53.474;49.470;2022-12-18T02:32:24;-1.08;103.66
70867;HTU21D;58487;53.474;49.470;2022-12-18T02:34:52;-1.02;91.65
70867;HTU21D;58487;53.474;49.470;2022-12-18T02:37:21;-0.98;91.85
70867;HTU21D;58487;53.474;49.470;2022-12-18T02:39:49;-1.00;92.34
70867;HTU21D;58487;53.474;49.470;2022-12-18T02:42:18;-0.94;102.14
70867;HTU21D;58487;53.474;49.470;2022-12-18T02:44:46;-0.98;99.87
70867;HTU21D;58487;53.474;49.470;2022-12-18T02:47:14;-0.95;91.31
70867;HTU21D;58487;53.474;49.470;2022-12-18T02:50:02;-0.96;101.05
70867;HTU21D;58487;53.474;49.470;2022-12-18T02:55:39;-0.98;90.44
70867;HTU21D;58487;53.474;49.470;2022-12-18T03:01:19;-0.98;103.86
70867;HTU21D;58487;53.474;49.470;2022-12-18T03:03:55;-0.95;89.93
70867;HTU21D;58487;53.474;49.470;2022-12-18T03:06:43;-0.97;105.58
70867;HTU21D;58487;53.474;49.470;2022-12-18T03:09:15;-0.96;92.70
70867;HTU21D;58487;53.474;49.470;2022-12-18T03:11:48;-0.86;92.43
70867;HTU21D;58487;53.474;49.470;2022-12-18T03:14:36;-0.80;99.41
70867;HTU21D;58487;53.474;49.470;2022-12-18T03:17:06;-0.74;95.30
70867;HTU21D;58487;53.474;49.470;2022-12-18T03:19:34;-0.69;92.01
70867;HTU21D;58487;53.474;49.470;2022-12-18T03:22:03;-0.62;91.79
70867;HTU21D;58487;53.474;49.470;2022-12-18T03:24:31;-0.58;99.61
70867;HTU21D;58487;53.474;49.470;2022-12-18T03:27:02;-0.57;91.17
70867;HTU21D;58487;53.474;49.470;2022-12-18T03:29:47;-0.53;95.29
70867;HTU21D;58487;53.474;49.470;2022-12-18T03:35:20;-0.47;95.91
70867;HTU21D;58487;53.474;49.470;2022-12-18T03:37:47;-0.47;91.19
70867;HTU21D;58487;53.474;49.470;2022-12-18T03:40:13;-0.50;98.03
70867;HTU21D;58487;53.474;49.470;2022-12-18T03:43:25;-0.50;92.59
70867;HTU21D;58487;53.474;49.470;2022-12-18T03:45:53;-0.45;93.99
70867;HTU21D;58487;53.474;49.470;2022-12-18T03:48:32;-0.36;94.01
70867;HTU21D;58487;53.474;49.470;2022-12-18T03:51:09;-0.35;92.44
70867;HTU21D;58487;53.474;49.470;2022-12-18T03:53:49;-0.31;91.89
70867;HTU21D;58487;53.474;49.470;2022-12-18T03:56:18;-0.25;92.39
70867;HTU21D;58487;53.474;49.470;2022-12-18T03:58:47;-0.22;92.05
70867;HTU21D;58487;53.474;49.470;2022-12-18T04:01:16;-0.24;91.59
70867;HTU21D;58487;53.474;49.470;2022-12-18T04:03:45;-0.19;93.12
70867;HTU21D;58487;53.474;49.470;2022-12-18T04:06:12;-0.10;92.01
70867;HTU21D;58487;53.474;49.470;2022-12-18T04:08:40;-0.11;91.88
70867;HTU21D;58487;53.474;49.470;2022-12-18T04:11:06;-0.09;92.78
70867;HTU21D;58487;53.474;49.470;2022-12-18T04:13:36;-0.13;93.10
70867;HTU21D;58487;53.474;49.470;2022-12-18T04:16:02;-0.13;93.60
70867;HTU21D;58487;53.474;49.470;2022-12-18T04:18:29;-0.14;95.65
70867;HTU21D;58487;53.474;49.470;2022-12-18T04:20:55;-0.01;95.73
70867;HTU21D;58487;53.474;49.470;2022-12-18T04:23:21;-0.02;93.46
70867;HTU21D;58487;53.474;49.470;2022-12-18T04:25:47;0.03;97.40
70867;HTU21D;58487;53.474;49.470;2022-12-18T04:28:13;0.06;94.48
70867;HTU21D;58487;53.474;49.470;2022-12-18T04:30:39;0.13;94.08
70867;HTU21D;58487;53.474;49.470;2022-12-18T04:33:13;0.19;96.29
70867;HTU21D;58487;53.474;49.470;2022-12-18T04:35:41;0.19;97.73
70867;HTU21D;58487;53.474;49.470;2022-12-18T04:38:08;0.25;94.77
70867;HTU21D;58487;53.474;49.470;2022-12-18T04:40:34;0.30;92.85
70867;HTU21D;58487;53.474;49.470;2022-12-18T04:43:00;0.30;93.77
70867;HTU21D;58487;53.474;49.470;2022-12-18T04:45:26;0.35;94.21
70867;HTU21D;58487;53.474;49.470;2022-12-18T04:47:52;0.31;93.15
70867;HTU21D;58487;53.474;49.470;2022-12-18T04:50:18;0.42;93.67
70867;HTU21D;58487;53.474;49.470;2022-12-18T04:52:44;0.43;92.30
70867;HTU21D;58487;53.474;49.470;2022-12-18T04:55:10;0.38;93.34
70867;HTU21D;58487;53.474;49.470;2022-12-18T04:57:36;0.47;94.31
70867;HTU21D;58487;53.474;49.470;2022-12-18T05:00:03;0.47;92.94
70867;HTU21D;58487;53.474;49.470;2022-12-18T05:02:29;0.51;93.24
70867;HTU21D;58487;53.474;49.470;2022-12-18T05:04:55;0.62;92.89
70867;HTU21D;58487;53.474;49.470;2022-12-18T05:07:21;0.65;92.50
70867;HTU21D;58487;53.474;49.470;2022-12-18T05:09:47;0.71;93.52
70867;HTU21D;58487;53.474;49.470;2022-12-18T05:12:13;0.74;92.68
70867;HTU21D;58487;53.474;49.470;2022-12-18T05:14:39;0.73;92.87
70867;HTU21D;58487;53.474;49.470;2022-12-18T05:17:06;0.76;92.06
70867;HTU21D;58487;53.474;49.470;2022-12-18T05:19:32;0.74;91.91
70867;HTU21D;58487;53.474;49.470;2022-12-18T05:21:58;0.76;91.66
70867;HTU21D;58487;53.474;49.470;2022-12-18T05:24:24;0.79;92.24
70867;HTU21D;58487;53.474;49.470;2022-12-18T05:26:50;0.79;93.90
70867;HTU21D;58487;53.474;49.470;2022-12-18T05:29:16;0.81;94.03
70867;HTU21D;58487;53.474;49.470;2022-12-18T05:31:42;0.82;91.98
70867;HTU21D;58487;53.474;49.470;2022-12-18T05:34:08;0.78;91.49
70867;HTU21D;58487;53.474;49.470;2022-12-18T05:36:34;0.79;91.44
70867;HTU21D;58487;53.474;49.470;2022-12-18T05:39:00;0.76;91.65
70867;HTU21D;58487;53.474;49.470;2022-12-18T05:41:27;0.73;92.05
70867;HTU21D;58487;53.474;49.470;2022-12-18T05:43:54;0.69;91.77
70867;HTU21D;58487;53.474;49.470;2022-12-18T05:46:20;0.68;91.72
70867;HTU21D;58487;53.474;49.470;2022-12-18T05:48:46;0.71;92.57
70867;HTU21D;58487;53.474;49.470;2022-12-18T05:51:16;0.69;92.51
70867;HTU21D;58487;53.474;49.470;2022-12-18T05:53:42;0.69;92.11
70867;HTU21D;58487;53.474;49.470;2022-12-18T05:56:14;0.66;93.63
70867;HTU21D;58487;53.474;49.470;2022-12-18T05:58:41;0.71;93.65
70867;HTU21D;58487;53.474;49.470;2022-12-18T06:01:18;0.76;93.22
70867;HTU21D;58487;53.474;49.470;2022-12-18T06:03:45;0.80;92.96
70867;HTU21D;58487;53.474;49.470;2022-12-18T06:06:22;0.80;92.66
70867;HTU21D;58487;53.474;49.470;2022-12-18T06:08:49;0.82;93.03
70867;HTU21D;58487;53.474;49.470;2022-12-18T06:11:18;0.84;93.22
70867;HTU21D;58487;53.474;49.470;2022-12-18T06:13:44;0.81;92.14
70867;HTU21D;58487;53.474;49.470;2022-12-18T06:16:10;0.81;91.48
70867;HTU21D;58487;53.474;49.470;2022-12-18T06:18:36;0.72;91.59
70867;HTU21D;58487;53.474;49.470;2022-12-18T06:21:02;0.66;92.24
70867;HTU21D;58487;53.474;49.470;2022-12-18T06:23:28;0.63;92.08
70867;HTU21D;58487;53.474;49.470;2022-12-18T06:25:54;0.66;92.24
70867;HTU21D;58487;53.474;49.470;2022-12-18T06:28:21;0.64;92.40
70867;HTU21D;58487;53.474;49.470;2022-12-18T06:30:47;0.66;92.08
70867;HTU21D;58487;53.474;49.470;2022-12-18T06:33:15;0.72;91.56
70867;HTU21D;58487;53.474;49.470;2022-12-18T06:35:41;0.67;91.30
70867;HTU21D;58487;53.474;49.470;2022-12-18T06:38:07;0.64;92.05
70867;HTU21D;58487;53.474;49.470;2022-12-18T06:40:33;0.68;90.85
70867;HTU21D;58487;53.474;49.470;2022-12-18T06:42:59;0.67;90.33
70867;HTU21D;58487;53.474;49.470;2022-12-18T06:45:25;0.61;90.51
70867;HTU21D;58487;53.474;49.470;2022-12-18T06:47:51;0.60;90.73
70867;HTU21D;58487;53.474;49.470;2022-12-18T06:50:17;0.49;90.47
70867;HTU21D;58487;53.474;49.470;2022-12-18T06:52:43;0.57;90.49
70867;HTU21D;58487;53.474;49.470;2022-12-18T06:55:10;0.48;90.11
70867;HTU21D;58487;53.474;49.470;2022-12-18T06:57:37;0.49;90.23
70867;HTU21D;58487;53.474;49.470;2022-12-18T07:00:05;0.55;89.92
70867;HTU21D;58487;53.474;49.470;2022-12-18T07:02:31;0.58;89.70
70867;HTU21D;58487;53.474;49.470;2022-12-18T07:04:58;0.55;89.48
70867;HTU21D;58487;53.474;49.470;2022-12-18T07:07:24;0.55;89.32
70867;HTU21D;58487;53.474;49.470;2022-12-18T07:09:50;0.59;89.63
70867;HTU21D;58487;53.474;49.470;2022-12-18T07:12:17;0.59;88.95
70867;HTU21D;58487;53.474;49.470;2022-12-18T07:14:43;0.55;89.51
70867;HTU21D;58487;53.474;49.470;2022-12-18T07:17:09;0.62;88.52
70867;HTU21D;58487;53.474;49.470;2022-12-18T07:19:35;0.64;89.05
70867;HTU21D;58487;53.474;49.470;2022-12-18T07:22:01;0.66;88.47
70867;HTU21D;58487;53.474;49.470;2022-12-18T07:24:27;0.68;88.32
70867;HTU21D;58487;53.474;49.470;2022-12-18T07:26:54;0.72;88.38
70867;HTU21D;58487;53.474;49.470;2022-12-18T07:29:20;0.79;88.09
70867;HTU21D;58487;53.474;49.470;2022-12-18T07:31:46;0.79;88.01
70867;HTU21D;58487;53.474;49.470;2022-12-18T07:34:13;0.78;87.37
70867;HTU21D;58487;53.474;49.470;2022-12-18T07:36:40;0.74;87.61
70867;HTU21D;58487;53.474;49.470;2022-12-18T07:39:10;0.71;87.63
70867;HTU21D;58487;53.474;49.470;2022-12-18T07:41:36;0.65;88.37
70867;HTU21D;58487;53.474;49.470;2022-12-18T07:44:02;0.62;88.39
70867;HTU21D;58487;53.474;49.470;2022-12-18T07:46:29;0.66;88.70
70867;HTU21D;58487;53.474;49.470;2022-12-18T07:48:55;0.69;89.02
70867;HTU21D;58487;53.474;49.470;2022-12-18T07:51:21;0.74;88.94
70867;HTU21D;58487;53.474;49.470;2022-12-18T07:53:47;0.74;88.96
70867;HTU21D;58487;53.474;49.470;2022-12-18T07:56:13;0.74;89.09
70867;HTU21D;58487;53.474;49.470;2022-12-18T07:58:39;0.74;89.48
70867;HTU21D;58487;53.474;49.470;2022-12-18T08:01:10;0.74;89.45
70867;HTU21D;58487;53.474;49.470;2022-12-18T08:03:38;0.72;89.85
70867;HTU21D;58487;53.474;49.470;2022-12-18T08:06:07;0.64;89.85
70867;HTU21D;58487;53.474;49.470;2022-12-18T08:08:33;0.64;90.58
70867;HTU21D;58487;53.474;49.470;2022-12-18T08:11:00;0.67;90.64
70867;HTU21D;58487;53.474;49.470;2022-12-18T08:13:27;0.68;90.62
70867;HTU21D;58487;53.474;49.470;2022-12-18T08:16:02;0.73;90.21
70867;HTU21D;58487;53.474;49.470;2022-12-18T08:18:29;0.69;90.98
70867;HTU21D;58487;53.474;49.470;2022-12-18T08:20:55;0.72;90.99
70867;HTU21D;58487;53.474;49.470;2022-12-18T08:23:22;0.75;91.40
70867;HTU21D;58487;53.474;49.470;2022-12-18T08:25:48;0.79;91.67
70867;HTU21D;58487;53.474;49.470;2022-12-18T08:28:14;0.79;91.57
70867;HTU21D;58487;53.474;49.470;2022-12-18T08:30:40;0.77;92.34
70867;HTU21D;58487;53.474;49.470;2022-12-18T08:33:06;0.69;93.85
70867;HTU21D;58487;53.474;49.470;2022-12-18T08:35:35;0.73;95.13
70867;HTU21D;58487;53.474;49.470;2022-12-18T08:38:02;0.72;93.83
70867;HTU21D;58487;53.474;49.470;2022-12-18T08:40:29;0.75;94.63
70867;HTU21D;58487;53.474;49.470;2022-12-18T08:42:55;0.73;95.63
70867;HTU21D;58487;53.474;49.470;2022-12-18T08:45:39;0.67;95.26
70867;HTU21D;58487;53.474;49.470;2022-12-18T08:48:06;0.67;97.20
70867;HTU21D;58487;53.474;49.470;2022-12-18T08:50:31;0.69;97.05
70867;HTU21D;58487;53.474;49.470;2022-12-18T08:52:57;0.71;96.42
70867;HTU21D;58487;53.474;49.470;2022-12-18T08:55:24;0.69;96.51
70867;HTU21D;58487;53.474;49.470;2022-12-18T08:57:53;0.73;96.49
70867;HTU21D;58487;53.474;49.470;2022-12-18T09:00:19;0.71;96.55
70867;HTU21D;58487;53.474;49.470;2022-12-18T09:02:45;0.78;95.27
70867;HTU21D;58487;53.474;49.470;2022-12-18T09:05:11;0.77;95.35
70867;HTU21D;58487;53.474;49.470;2022-12-18T09:07:37;0.83;101.12
70867;HTU21D;58487;53.474;49.470;2022-12-18T09:10:04;0.79;101.35
70867;HTU21D;58487;53.474;49.470;2022-12-18T09:12:33;0.75;102.20
70867;HTU21D;58487;53.474;49.470;2022-12-18T09:14:59;0.68;102.73
70867;HTU21D;58487;53.474;49.470;2022-12-18T09:17:25;0.71;103.69
70867;HTU21D;58487;53.474;49.470;2022-12-18T09:19:51;0.71;109.64
70867;HTU21D;58487;53.474;49.470;2022-12-18T09:22:17;0.74;104.51
70867;HTU21D;58487;53.474;49.470;2022-12-18T09:24:43;0.78;105.30
70867;HTU21D;58487;53.474;49.470;2022-12-18T09:27:09;0.77;103.83
70867;HTU21D;58487;53.474;49.470;2022-12-18T09:29:35;0.76;103.57
70867;HTU21D;58487;53.474;49.470;2022-12-18T09:32:02;0.80;103.68
70867;HTU21D;58487;53.474;49.470;2022-12-18T09:34:28;0.86;103.93
70867;HTU21D;58487;53.474;49.470;2022-12-18T09:36:54;0.83;103.81
70867;HTU21D;58487;53.474;49.470;2022-12-18T09:39:20;0.84;103.76
70867;HTU21D;58487;53.474;49.470;2022-12-18T09:41:54;0.89;103.85
70867;HTU21D;58487;53.474;49.470;2022-12-18T09:44:44;0.94;104.18
70867;HTU21D;58487;53.474;49.470;2022-12-18T09:47:27;0.92;104.44
70867;HTU21D;58487;53.474;49.470;2022-12-18T09:49:58;1.01;104.45
70867;HTU21D;58487;53.474;49.470;2022-12-18T09:52:34;0.96;104.27
70867;HTU21D;58487;53.474;49.470;2022-12-18T09:57:52;0.95;104.50
70867;HTU21D;58487;53.474;49.470;2022-12-18T10:00:23;0.95;103.90
70867;HTU21D;58487;53.474;49.470;2022-12-18T10:03:00;0.96;104.11
70867;HTU21D;58487;53.474;49.470;2022-12-18T10:06:13;1.01;104.44
70867;HTU21D;58487;53.474;49.470;2022-12-18T10:11:27;1.08;103.66
70867;HTU21D;58487;53.474;49.470;2022-12-18T10:14:19;1.08;103.67
70867;HTU21D;58487;53.474;49.470;2022-12-18T10:19:36;1.12;103.47
70867;HTU21D;58487;53.474;49.470;2022-12-18T10:22:26;1.16;103.79
70867;HTU21D;58487;53.474;49.470;2022-12-18T10:27:29;1.16;103.81
70867;HTU21D;58487;53.474;49.470;2022-12-18T10:29:57;1.14;103.79
70867;HTU21D;58487;53.474;49.470;2022-12-18T10:32:30;1.17;103.86
70867;HTU21D;58487;53.474;49.470;2022-12-18T10:34:58;1.17;103.86
70867;HTU21D;58487;53.474;49.470;2022-12-18T10:37:27;1.23;103.83
70867;HTU21D;58487;53.474;49.470;2022-12-18T10:40:15;1.23;103.76
70867;HTU21D;58487;53.474;49.470;2022-12-18T10:42:41;1.26;103.89
70867;HTU21D;58487;53.474;49.470;2022-12-18T10:45:14;1.24;103.67
70867;HTU21D;58487;53.474;49.470;2022-12-18T10:47:46;1.24;103.69
70867;HTU21D;58487;53.474;49.470;2022-12-18T10:50:34;1.32;103.95
70867;HTU21D;58487;53.474;49.470;2022-12-18T10:53:04;1.28;103.83
70867;HTU21D;58487;53.474;49.470;2022-12-18T10:55:35;1.32;103.92
70867;HTU21D;58487;53.474;49.470;2022-12-18T10:58:19;1.29;103.73
70867;HTU21D;58487;53.474;49.470;2022-12-18T11:01:03;1.29;103.84
70867;HTU21D;58487;53.474;49.470;2022-12-18T11:03:38;1.34;103.76
70867;HTU21D;58487;53.474;49.470;2022-12-18T11:09:33;1.34;103.70
70867;HTU21D;58487;53.474;49.470;2022-12-18T11:15:20;1.38;103.96
70867;HTU21D;58487;53.474;49.470;2022-12-18T11:17:51;1.40;104.02
70867;HTU21D;58487;53.474;49.470;2022-12-18T11:22:57;1.40;104.01
70867;HTU21D;58487;53.474;49.470;2022-12-18T11:25:29;1.38;103.38
70867;HTU21D;58487;53.474;49.470;2022-12-18T11:27:59;1.46;103.52
70867;HTU21D;58487;53.474;49.470;2022-12-18T11:33:06;1.42;102.24
70867;HTU21D;58487;53.474;49.470;2022-12-18T11:35:58;1.52;99.89
70867;HTU21D;58487;53.474;49.470;2022-12-18T11:38:35;1.52;97.41
70867;HTU21D;58487;53.474;49.470;2022-12-18T11:41:07;1.50;96.20
70867;HTU21D;58487;53.474;49.470;2022-12-18T11:43:58;1.53;96.91
70867;HTU21D;58487;53.474;49.470;2022-12-18T11:46:36;1.55;96.73
70867;HTU21D;58487;53.474;49.470;2022-12-18T11:49:28;1.58;96.53
70867;HTU21D;58487;53.474;49.470;2022-12-18T11:52:55;1.60;96.42
70867;HTU21D;58487;53.474;49.470;2022-12-18T11:54:57;1.61;96.19
70867;HTU21D;58487;53.474;49.470;2022-12-18T11:57:42;1.61;96.30
70867;HTU21D;58487;53.474;49.470;2022-12-18T12:00:18;1.65;96.50
70867;HTU21D;58487;53.474;49.470;2022-12-18T12:16:58;1.65;95.52
70867;HTU21D;58487;53.474;49.470;2022-12-18T12:19:55;1.71;95.26
70867;HTU21D;58487;53.474;49.470;2022-12-18T12:22:38;1.68;95.10
70867;HTU21D;58487;53.474;49.470;2022-12-18T12:25:10;1.69;95.07
70867;HTU21D;58487;53.474;49.470;2022-12-18T12:28:07;1.66;95.77
70867;HTU21D;58487;53.474;49.470;2022-12-18T12:34:05;1.61;95.62
70867;HTU21D;58487;53.474;49.470;2022-12-18T12:39:11;1.65;95.64
70867;HTU21D;58487;53.474;49.470;2022-12-18T12:41:40;1.62;96.32
70867;HTU21D;58487;53.474;49.470;2022-12-18T12:44:55;1.61;96.25
70867;HTU21D;58487;53.474;49.470;2022-12-18T12:47:28;1.69;95.94
70867;HTU21D;58487;53.474;49.470;2022-12-18T12:49:59;1.73;95.27
70867;HTU21D;58487;53.474;49.470;2022-12-18T12:52:42;1.71;95.47
70867;HTU21D;58487;53.474;49.470;2022-12-18T12:55:18;1.78;95.52
70867;HTU21D;58487;53.474;49.470;2022-12-18T12:57:59;1.77;95.59
70867;HTU21D;58487;53.474;49.470;2022-12-18T13:00:34;1.72;95.75
70867;HTU21D;58487;53.474;49.470;2022-12-18T13:03:27;1.73;96.09
70867;HTU21D;58487;53.474;49.470;2022-12-18T13:06:11;1.72;96.39
70867;HTU21D;58487;53.474;49.470;2022-12-18T13:08:53;1.66;96.69
70867;HTU21D;58487;53.474;49.470;2022-12-18T13:20:02;1.70;95.78
70867;HTU21D;58487;53.474;49.470;2022-12-18T13:22:34;1.75;95.49
70867;HTU21D;58487;53.474;49.470;2022-12-18T13:25:00;1.77;95.21
70867;HTU21D;58487;53.474;49.470;2022-12-18T13:38:43;1.75;95.74
70867;HTU21D;58487;53.474;49.470;2022-12-18T13:41:22;1.75;95.80
70867;HTU21D;58487;53.474;49.470;2022-12-18T13:43:57;1.76;95.84
70867;HTU21D;58487;53.474;49.470;2022-12-18T13:51:53;1.82;95.52
70867;HTU21D;58487;53.474;49.470;2022-12-18T13:54:23;1.88;95.43
70867;HTU21D;58487;53.474;49.470;2022-12-18T13:56:51;1.84;95.49
70867;HTU21D;58487;53.474;49.470;2022-12-18T13:59:18;1.87;95.59
70867;HTU21D;58487;53.474;49.470;2022-12-18T14:04:27;1.85;95.74
70867;HTU21D;58487;53.474;49.470;2022-12-18T14:07:05;1.86;95.75
70867;HTU21D;58487;53.474;49.470;2022-12-18T14:09:46;1.85;95.73
70867;HTU21D;58487;53.474;49.470;2022-12-18T14:12:17;1.88;95.90
70867;HTU21D;58487;53.474;49.470;2022-12-18T14:15:05;1.88;95.91
70867;HTU21D;58487;53.474;49.470;2022-12-18T14:17:32;1.88;95.97
70867;HTU21D;58487;53.474;49.470;2022-12-18T14:19:58;1.92;95.87
70867;HTU21D;58487;53.474;49.470;2022-12-18T14:22:25;1.93;96.02
70867;HTU21D;58487;53.474;49.470;2022-12-18T14:25:18;1.92;96.19
70867;HTU21D;58487;53.474;49.470;2022-12-18T14:30:39;1.98;95.87
70867;HTU21D;58487;53.474;49.470;2022-12-18T14:33:26;1.97;95.75
70867;HTU21D;58487;53.474;49.470;2022-12-18T14:36:05;1.95;95.70
70867;HTU21D;58487;53.474;49.470;2022-12-18T14:38:35;1.94;95.90
70867;HTU21D;58487;53.474;49.470;2022-12-18T14:41:11;1.92;95.83
70867;HTU21D;58487;53.474;49.470;2022-12-18T14:43:41;1.96;95.38
70867;HTU21D;58487;53.474;49.470;2022-12-18T14:46:36;1.95;95.43
70867;HTU21D;58487;53.474;49.470;2022-12-18T14:49:32;2.01;95.58
70867;HTU21D;58487;53.474;49.470;2022-12-18T14:52:00;1.99;95.61
70867;HTU21D;58487;53.474;49.470;2022-12-18T14:54:28;1.99;95.70
70867;HTU21D;58487;53.474;49.470;2022-12-18T14:57:04;2.00;95.65
70867;HTU21D;58487;53.474;49.470;2022-12-18T14:59:31;2.02;95.38
70867;HTU21D;58487;53.474;49.470;2022-12-18T15:04:34;1.98;95.46
70867;HTU21D;58487;53.474;49.470;2022-12-18T15:07:12;1.99;94.86
70867;HTU21D;58487;53.474;49.470;2022-12-18T15:09:44;2.05;94.75
70867;HTU21D;58487;53.474;49.470;2022-12-18T15:12:40;2.06;94.86
70867;HTU21D;58487;53.474;49.470;2022-12-18T15:17:59;2.01;95.14
70867;HTU21D;58487;53.474;49.470;2022-12-18T15:20:26;2.00;95.63
70867;HTU21D;58487;53.474;49.470;2022-12-18T15:22:53;1.98;95.92
70867;HTU21D;58487;53.474;49.470;2022-12-18T15:25:36;1.97;96.04
70867;HTU21D;58487;53.474;49.470;2022-12-18T15:28:22;2.01;95.86
70867;HTU21D;58487;53.474;49.470;2022-12-18T15:33:41;2.02;95.60
70867;HTU21D;58487;53.474;49.470;2022-12-18T15:36:10;2.03;95.45
70867;HTU21D;58487;53.474;49.470;2022-12-18T15:38:36;2.05;95.61
70867;HTU21D;58487;53.474;49.470;2022-12-18T15:41:03;2.06;95.52
70867;HTU21D;58487;53.474;49.470;2022-12-18T15:43:29;2.00;95.49
70867;HTU21D;58487;53.474;49.470;2022-12-18T15:46:05;1.98;95.75
70867;HTU21D;58487;53.474;49.470;2022-12-18T15:48:35;2.00;95.52
70867;HTU21D;58487;53.474;49.470;2022-12-18T15:51:08;2.03;95.25
70867;HTU21D;58487;53.474;49.470;2022-12-18T15:53:36;2.06;95.14
70867;HTU21D;58487;53.474;49.470;2022-12-18T15:56:07;2.13;94.62
70867;HTU21D;58487;53.474;49.470;2022-12-18T15:58:53;2.07;94.65
70867;HTU21D;58487;53.474;49.470;2022-12-18T16:01:21;2.08;94.70
70867;HTU21D;58487;53.474;49.470;2022-12-18T16:03:51;2.14;94.58
70867;HTU21D;58487;53.474;49.470;2022-12-18T16:06:17;2.14;94.83
70867;HTU21D;58487;53.474;49.470;2022-12-18T16:08:43;2.13;94.46
70867;HTU21D;58487;53.474;49.470;2022-12-18T16:11:36;2.11;95.13
70867;HTU21D;58487;53.474;49.470;2022-12-18T16:17:05;2.07;95.49
70867;HTU21D;58487;53.474;49.470;2022-12-18T16:19:32;1.99;96.08
70867;HTU21D;58487;53.474;49.470;2022-12-18T16:21:58;2.01;96.10
70867;HTU21D;58487;53.474;49.470;2022-12-18T16:24:27;1.97;96.55
70867;HTU21D;58487;53.474;49.470;2022-12-18T16:26:56;1.96;96.97
70867;HTU21D;58487;53.474;49.470;2022-12-18T16:29:23;1.96;97.32
70867;HTU21D;58487;53.474;49.470;2022-12-18T16:32:00;1.95;97.40
70867;HTU21D;58487;53.474;49.470;2022-12-18T16:34:27;1.95;97.58
70867;HTU21D;58487;53.474;49.470;2022-12-18T16:36:54;1.92;97.94
70867;HTU21D;58487;53.474;49.470;2022-12-18T16:39:21;1.96;98.05
70867;HTU21D;58487;53.474;49.470;2022-12-18T16:41:47;1.95;98.22
70867;HTU21D;58487;53.474;49.470;2022-12-18T16:44:15;1.94;98.16
70867;HTU21D;58487;53.474;49.470;2022-12-18T16:46:41;1.93;98.54
70867;HTU21D;58487;53.474;49.470;2022-12-18T16:49:17;1.94;98.51
70867;HTU21D;58487;53.474;49.470;2022-12-18T16:51:48;1.97;98.77
70867;HTU21D;58487;53.474;49.470;2022-12-18T16:54:14;1.97;98.42
70867;HTU21D;58487;53.474;49.470;2022-12-18T16:56:40;2.00;98.74
70867;HTU21D;58487;53.474;49.470;2022-12-18T16:59:10;1.97;98.64
70867;HTU21D;58487;53.474;49.470;2022-12-18T17:01:36;2.01;98.87
70867;HTU21D;58487;53.474;49.470;2022-12-18T17:04:04;2.03;98.57
70867;HTU21D;58487;53.474;49.470;2022-12-18T17:06:34;2.00;98.70
70867;HTU21D;58487;53.474;49.470;2022-12-18T17:09:05;2.02;98.71
70867;HTU21D;58487;53.474;49.470;2022-12-18T17:11:32;1.97;98.39
70867;HTU21D;58487;53.474;49.470;2022-12-18T17:14:04;2.00;98.65